Time;durP1;ratioP1;P1;durP2;ratioP2;P2;SDS_P1;SDS_P2;PMS_P1;PMS_P2;Temp;Humidity;BMP_temperature;BMP_pressure;BME280_temperature;BME280_humidity;BME280_pressure;Samples;Min_cycle;Max_cycle;Signal;HPM_P1;HPM_P2
2022/03/25 00:02:40;;;;;;;0.00;0.00;;;;;;;20.26;27.30;102848.38;10538344;28;20127;-76
2022/03/25 00:07:42;;;;;;;0.00;0.00;;;;;;;21.01;26.66;102844.28;10523631;28;20043;-76
2022/03/25 00:12:43;;;;;;;0.00;0.00;;;;;;;20.07;27.56;102848.91;10536332;28;20071;-75
2022/03/25 00:17:45;;;;;;;0.00;0.00;;;;;;;19.73;27.88;102851.75;10534914;28;20071;-76
2022/03/25 00:22:47;;;;;;;0.00;0.00;;;;;;;20.00;27.67;102853.19;10503000;28;20048;-77
2022/03/25 00:27:48;;;;;;;0.40;0.40;;;;;;;18.76;29.71;102853.25;10519438;28;20058;-77
2022/03/25 00:32:50;;;;;;;0.00;0.00;;;;;;;19.02;29.58;102851.22;10517535;28;20093;-75
2022/03/25 00:37:52;;;;;;;0.28;0.28;;;;;;;19.24;29.07;102850.81;10537341;28;20131;-76
2022/03/25 00:42:54;;;;;;;0.17;0.17;;;;;;;18.79;29.78;102858.50;10521116;28;20079;-76
2022/03/25 00:47:56;;;;;;;1.92;0.98;;;;;;;17.87;32.01;102857.09;10516976;28;20094;-76
2022/03/25 00:52:57;;;;;;;1.55;1.40;;;;;;;17.87;31.87;102857.09;10536156;28;20132;-75
2022/03/25 00:57:59;;;;;;;0.68;0.63;;;;;;;17.73;31.79;102855.00;10518920;28;20498;-76
2022/03/25 01:03:35;;;;;;;11.73;1.83;;;;;;;17.66;32.59;102855.66;10531834;28;20471;-76
2022/03/25 01:08:36;;;;;;;40.22;8.13;;;;;;;17.02;33.55;102857.28;10534223;28;20036;-76
2022/03/25 01:13:38;;;;;;;9.13;2.53;;;;;;;16.56;34.69;102861.91;10507855;28;20055;-76
2022/03/25 01:18:42;;;;;;;3.25;2.35;;;;;;;16.69;34.50;102864.06;10519417;28;20475;-77
2022/03/25 01:23:45;;;;;;;10.43;2.92;;;;;;;16.23;35.53;102872.94;10511670;28;20576;-75
2022/03/25 01:28:47;;;;;;;19.42;4.95;;;;;;;16.55;34.89;102870.53;10518051;28;20036;-75
2022/03/25 01:33:50;;;;;;;4.95;3.05;;;;;;;16.54;34.64;102873.97;10521520;28;20048;-75
2022/03/25 01:38:52;;;;;;;2.08;1.92;;;;;;;16.35;34.92;102857.75;10497969;28;20064;-75
2022/03/25 01:43:56;;;;;;;1.98;0.57;;;;;;;17.10;33.75;102859.28;10525422;28;20040;-75
2022/03/25 01:48:58;;;;;;;0.20;0.20;;;;;;;17.90;32.26;102847.63;10524262;28;20040;-76
2022/03/25 01:54:31;;;;;;;1.05;1.00;;;;;;;17.84;32.22;102846.56;10525169;28;20525;-76
2022/03/25 01:59:33;;;;;;;0.00;0.00;;;;;;;18.32;30.74;102848.72;10526749;28;20131;-77
2022/03/25 02:04:35;;;;;;;0.55;0.55;;;;;;;17.49;32.01;102849.09;10557643;28;20914;-76
2022/03/25 02:09:37;;;;;;;0.43;0.43;;;;;;;16.48;34.14;102852.13;10539045;28;20060;-77
2022/03/25 02:14:43;;;;;;;0.00;0.00;;;;;;;17.50;32.16;102853.47;10506995;28;20051;-78
2022/03/25 02:19:48;;;;;;;0.10;0.10;;;;;;;16.98;33.30;102843.28;10515972;28;20072;-77
2022/03/25 02:24:51;;;;;;;0.00;0.00;;;;;;;17.60;32.02;102847.69;10503031;28;20052;-76
2022/03/25 02:29:54;;;;;;;0.77;0.77;;;;;;;16.91;33.68;102843.91;10524706;28;20531;-76
2022/03/25 02:34:56;;;;;;;0.30;0.30;;;;;;;16.95;32.81;102851.91;10522145;28;20048;-76
2022/03/25 02:39:58;;;;;;;1.25;1.15;;;;;;;16.88;32.79;102849.00;10523768;28;20059;-75
2022/03/25 02:45:00;;;;;;;0.35;0.35;;;;;;;17.20;32.30;102851.75;10499300;28;20049;-75
2022/03/25 02:50:02;;;;;;;4.55;1.15;;;;;;;17.51;31.99;102858.72;10559220;28;20062;-75
2022/03/25 02:55:04;;;;;;;0.85;0.63;;;;;;;17.40;32.13;102863.63;10523372;28;20040;-76
2022/03/25 03:00:08;;;;;;;0.00;0.00;;;;;;;17.56;31.76;102866.66;10556227;28;20115;-75
2022/03/25 03:05:09;;;;;;;0.40;0.40;;;;;;;17.87;31.36;102851.88;10541969;28;20053;-75
2022/03/25 03:10:12;;;;;;;0.00;0.00;;;;;;;18.23;30.59;102846.78;10523178;28;20083;-76
2022/03/25 03:15:17;;;;;;;0.00;0.00;;;;;;;16.79;32.64;102860.03;10492518;28;20109;-77
2022/03/25 03:20:20;;;;;;;0.00;0.00;;;;;;;18.86;29.88;102838.66;10522118;28;20048;-76
2022/03/25 03:25:22;;;;;;;0.98;0.90;;;;;;;17.15;32.12;102843.78;10544039;28;20122;-76
2022/03/25 03:30:24;;;;;;;0.10;0.10;;;;;;;16.90;32.90;102837.78;10539514;28;20036;-76
2022/03/25 03:35:28;;;;;;;0.00;0.00;;;;;;;16.25;33.62;102851.34;10539625;28;20124;-77
2022/03/25 03:40:29;;;;;;;0.00;0.00;;;;;;;16.44;33.20;102850.25;10527113;28;20530;-75
2022/03/25 03:45:32;;;;;;;1.42;1.35;;;;;;;16.56;32.85;102848.91;10531823;28;20258;-76
2022/03/25 03:50:33;;;;;;;0.00;0.00;;;;;;;16.48;32.68;102844.31;10536133;28;20105;-77
2022/03/25 03:55:35;;;;;;;0.00;0.00;;;;;;;14.87;35.95;102859.34;10538146;28;20067;-76
2022/03/25 04:00:37;;;;;;;0.30;0.30;;;;;;;14.85;35.09;102857.50;10535674;28;20119;-77
2022/03/25 04:05:39;;;;;;;0.05;0.05;;;;;;;14.87;34.58;102861.94;10533717;28;20082;-75
2022/03/25 04:10:40;;;;;;;0.10;0.10;;;;;;;16.43;33.21;102848.47;10533946;28;20454;-76
2022/03/25 04:15:42;;;;;;;0.00;0.00;;;;;;;16.73;32.67;102860.72;10549247;28;20082;-77
2022/03/25 04:20:44;;;;;;;0.00;0.00;;;;;;;17.22;32.11;102852.69;10523587;28;20046;-77
2022/03/25 04:25:51;;;;;;;1.55;1.05;;;;;;;17.11;32.13;102862.78;10519968;28;20055;-76
2022/03/25 04:30:52;;;;;;;0.00;0.00;;;;;;;16.94;30.89;102872.69;10540395;28;20068;-76
2022/03/25 04:35:54;;;;;;;0.00;0.00;;;;;;;17.44;30.66;102857.66;10541917;28;20047;-77
2022/03/25 04:40:55;;;;;;;4.13;2.40;;;;;;;17.60;30.42;102858.97;10549257;28;20067;-76
2022/03/25 04:45:57;;;;;;;0.00;0.00;;;;;;;16.50;32.27;102857.38;10537967;28;20039;-76
2022/03/25 04:50:59;;;;;;;0.00;0.00;;;;;;;17.23;31.25;102865.72;10515784;28;20051;-76
2022/03/25 04:56:02;;;;;;;0.00;0.00;;;;;;;18.30;29.62;102853.00;10534581;28;20494;-76
2022/03/25 05:01:04;;;;;;;0.00;0.00;;;;;;;18.83;28.52;102855.16;10538058;28;20064;-77
2022/03/25 05:06:05;;;;;;;0.00;0.00;;;;;;;18.24;29.21;102858.94;10509651;28;20487;-76
2022/03/25 05:11:07;;;;;;;8.73;8.07;;;;;;;15.93;33.04;102871.06;10544923;28;20138;-76
2022/03/25 05:16:09;;;;;;;0.03;0.03;;;;;;;15.07;33.82;102873.09;10544530;28;20051;-76
2022/03/25 05:21:11;;;;;;;0.08;0.08;;;;;;;15.98;33.32;102874.69;10545186;28;20078;-76
2022/03/25 05:26:12;;;;;;;0.00;0.00;;;;;;;16.84;31.61;102874.06;10535003;28;20479;-76
2022/03/25 05:31:15;;;;;;;0.63;0.63;;;;;;;14.87;34.52;102887.00;10527056;28;20438;-75
2022/03/25 05:36:17;;;;;;;0.52;0.45;;;;;;;14.58;34.99;102887.56;10535143;28;20051;-75
2022/03/25 05:41:19;;;;;;;0.20;0.20;;;;;;;14.02;35.31;102894.72;10511705;28;20047;-76
2022/03/25 05:46:21;;;;;;;6.72;2.80;;;;;;;15.29;34.34;102889.50;10544434;28;20055;-75
2022/03/25 05:51:23;;;;;;;0.00;0.00;;;;;;;15.39;33.93;102896.81;10544518;28;20118;-77
2022/03/25 05:56:25;;;;;;;0.05;0.05;;;;;;;15.77;34.43;102908.59;10537723;28;20473;-77
2022/03/25 06:01:29;;;;;;;0.00;0.00;;;;;;;17.78;31.50;102889.00;10525795;28;20042;-76
2022/03/25 06:06:30;;;;;;;0.00;0.00;;;;;;;16.87;30.92;102899.28;10550825;28;20054;-76
2022/03/25 06:11:32;;;;;;;0.00;0.00;;;;;;;18.37;28.86;102886.22;10518952;28;20045;-76
2022/03/25 06:16:33;;;;;;;0.00;0.00;;;;;;;19.31;28.33;102890.19;10542706;28;20465;-77
2022/03/25 06:21:35;;;;;;;0.00;0.00;;;;;;;19.08;28.24;102892.28;10558809;28;20037;-77
2022/03/25 06:26:37;;;;;;;0.00;0.00;;;;;;;17.77;30.63;102897.66;10524991;28;20478;-76
2022/03/25 06:31:38;;;;;;;0.00;0.00;;;;;;;18.21;30.86;102902.34;10524845;28;20040;-77
2022/03/25 06:36:40;;;;;;;0.85;0.30;;;;;;;17.42;32.34;102906.25;10524515;28;20048;-76
2022/03/25 06:41:42;;;;;;;0.00;0.00;;;;;;;15.40;36.81;102918.47;10531583;28;20074;-76
2022/03/25 06:46:43;;;;;;;0.05;0.05;;;;;;;17.72;33.01;102918.41;10523727;28;20113;-78
2022/03/25 06:51:45;;;;;;;0.10;0.10;;;;;;;18.00;32.04;102921.78;10541679;28;20079;-77
2022/03/25 06:56:47;;;;;;;0.95;0.95;;;;;;;15.55;37.56;102942.44;10541812;28;20048;-77
2022/03/25 07:01:49;;;;;;;1.00;0.43;;;;;;;17.30;35.32;102926.72;10541679;28;20071;-76
2022/03/25 07:06:55;;;;;;;3.97;2.75;;;;;;;16.45;37.23;102943.06;10537577;28;20579;-77
2022/03/25 07:11:57;;;;;;;20.50;4.35;;;;;;;15.95;38.04;102950.84;10541164;28;20074;-76
2022/03/25 07:16:59;;;;;;;13.85;6.78;;;;;;;15.41;40.32;102955.75;10540973;28;20487;-77
2022/03/25 07:22:02;;;;;;;8.07;5.95;;;;;;;16.36;38.48;102960.97;10540693;28;20046;-77
2022/03/25 07:27:04;;;;;;;9.10;4.30;;;;;;;16.09;38.53;102961.78;10522227;28;20131;-75
2022/03/25 07:32:05;;;;;;;26.50;13.65;;;;;;;15.23;40.37;102972.38;10517683;28;20608;-76
2022/03/25 07:37:07;;;;;;;15.57;7.30;;;;;;;16.87;37.75;102972.19;10519632;28;20090;-77
2022/03/25 07:42:11;;;;;;;23.58;10.18;;;;;;;16.45;38.38;102983.84;10538718;28;20040;-76
2022/03/25 07:47:14;;;;;;;8.07;4.53;;;;;;;16.73;39.25;102985.63;10520498;28;20048;-76
2022/03/25 07:52:16;;;;;;;11.15;4.72;;;;;;;17.63;37.52;102983.28;10538479;28;20047;-76
2022/03/25 07:57:17;;;;;;;8.77;5.00;;;;;;;18.40;35.64;102989.81;10538780;28;20044;-76
2022/03/25 08:02:19;;;;;;;1.73;1.60;;;;;;;19.02;34.59;102981.81;10537032;28;20120;-77
2022/03/25 08:07:21;;;;;;;14.38;5.03;;;;;;;17.55;37.57;103003.00;10518707;28;20101;-76
2022/03/25 08:12:22;;;;;;;9.18;6.80;;;;;;;18.71;35.94;103001.94;10518889;28;20072;-76
2022/03/25 08:17:24;;;;;;;9.15;4.25;;;;;;;18.22;37.10;103011.06;10519078;28;20101;-76
2022/03/25 08:22:26;;;;;;;3.30;2.58;;;;;;;19.70;34.19;103007.72;10537074;28;20075;-77
2022/03/25 08:27:48;;;;;;;6.72;3.60;;;;;;;19.53;34.78;103020.44;10518785;28;20143;-77
2022/03/25 08:32:53;;;;;;;9.10;6.28;;;;;;;18.95;34.45;103023.44;10536275;28;20036;-76
2022/03/25 08:37:56;;;;;;;5.57;3.45;;;;;;;18.51;35.43;103026.63;10527498;28;20433;-76
2022/03/25 08:42:59;;;;;;;0.43;0.43;;;;;;;21.45;31.49;103014.38;10523801;28;20075;-77
2022/03/25 08:48:02;;;;;;;5.55;1.55;;;;;;;21.08;32.05;103014.69;10539205;28;20052;-77
2022/03/25 08:53:04;;;;;;;4.18;3.03;;;;;;;20.42;32.88;103021.41;10542072;28;20123;-76
2022/03/25 08:58:07;;;;;;;0.40;0.40;;;;;;;22.52;29.93;103020.06;10542633;28;20036;-77
2022/03/25 09:03:09;;;;;;;0.30;0.30;;;;;;;23.25;28.56;103011.03;10548063;27;20044;-76
2022/03/25 09:08:12;;;;;;;0.05;0.05;;;;;;;22.90;29.63;103014.25;10525898;28;20535;-77
2022/03/25 09:13:13;;;;;;;4.07;2.92;;;;;;;21.30;32.05;103022.88;10542739;28;20075;-76
2022/03/25 09:18:15;;;;;;;3.95;3.40;;;;;;;22.85;29.39;103019.50;10523495;28;20495;-77
2022/03/25 09:23:17;;;;;;;11.40;7.03;;;;;;;21.49;31.67;103026.66;10525275;28;20479;-76
2022/03/25 09:28:19;;;;;;;2.28;1.13;;;;;;;23.27;28.87;103015.44;10514141;28;20036;-76
2022/03/25 09:33:21;;;;;;;6.65;5.05;;;;;;;21.64;31.69;103036.53;10528291;28;20477;-77
2022/03/25 09:38:22;;;;;;;9.93;3.20;;;;;;;24.69;26.57;103017.69;10542638;28;20119;-76
2022/03/25 09:43:24;;;;;;;7.88;5.80;;;;;;;23.02;28.68;103026.59;10507614;28;20056;-77
2022/03/25 09:48:26;;;;;;;4.03;2.03;;;;;;;23.85;27.37;103021.00;10524539;28;20067;-77
2022/03/25 09:53:31;;;;;;;1.95;1.45;;;;;;;26.31;24.97;103014.59;10505567;28;20537;-77
2022/03/25 09:58:33;;;;;;;1.02;0.95;;;;;;;26.48;24.61;103014.47;10541798;28;20479;-77
2022/03/25 10:03:36;;;;;;;1.75;1.55;;;;;;;25.77;25.31;103015.75;10523225;28;20218;-77
2022/03/25 10:08:39;;;;;;;1.08;1.08;;;;;;;27.42;25.04;103008.34;10523515;28;20446;-77
2022/03/25 10:13:41;;;;;;;11.05;4.63;;;;;;;23.88;28.27;103023.63;10540822;28;20050;-78
2022/03/25 10:18:51;;;;;;;0.13;0.13;;;;;;;25.69;25.54;103014.91;10522799;28;20040;-77
2022/03/25 10:23:53;;;;;;;2.72;2.53;;;;;;;25.84;25.02;103012.19;10539942;28;20040;-77
2022/03/25 10:28:57;;;;;;;3.53;1.55;;;;;;;27.63;24.22;102993.06;10539463;28;20780;-78
2022/03/25 10:33:59;;;;;;;4.50;1.35;;;;;;;28.76;21.57;102997.59;10538844;28;20048;-77
2022/03/25 10:39:06;;;;;;;2.75;0.73;;;;;;;30.32;20.99;103001.47;10538865;28;20479;-77
2022/03/25 10:44:10;;;;;;;5.75;2.75;;;;;;;26.25;25.57;103005.81;10520452;28;20143;-77
2022/03/25 10:49:17;;;;;;;1.75;1.27;;;;;;;27.59;23.47;103009.91;10520865;28;20043;-77
2022/03/25 10:54:25;;;;;;;5.70;4.78;;;;;;;26.85;24.74;103007.13;10554414;28;20124;-77
2022/03/25 10:59:28;;;;;;;11.15;6.88;;;;;;;25.81;24.62;103004.28;10538279;28;20584;-77
2022/03/25 11:04:31;;;;;;;8.77;3.75;;;;;;;26.31;25.92;102998.75;10536072;28;20051;-77
2022/03/25 11:09:32;;;;;;;5.63;2.67;;;;;;;26.34;24.21;103012.81;10538383;28;20076;-78
2022/03/25 11:14:34;;;;;;;7.95;4.82;;;;;;;24.26;27.63;103012.34;10537599;28;20522;-77
2022/03/25 11:19:37;;;;;;;2.13;1.23;;;;;;;27.86;24.45;103009.53;10538565;28;20086;-78
2022/03/25 11:24:45;;;;;;;0.77;0.77;;;;;;;26.54;24.53;103002.09;10537863;28;20068;-78
2022/03/25 11:29:51;;;;;;;4.88;2.47;;;;;;;28.57;22.78;103001.41;10533980;28;20047;-77
2022/03/25 11:34:56;;;;;;;0.85;0.47;;;;;;;28.56;23.01;102999.69;10535198;28;20083;-78
2022/03/25 11:40:13;;;;;;;1.13;1.13;;;;;;;28.89;23.81;102990.28;10517659;28;20048;-78
2022/03/25 11:45:20;;;;;;;9.73;4.82;;;;;;;26.12;24.93;103004.13;10516981;28;20055;-77
2022/03/25 11:50:30;;;;;;;1.85;1.40;;;;;;;27.10;24.75;102991.00;10534595;28;20036;-78
2022/03/25 11:56:06;;;;;;;6.65;2.80;;;;;;;27.54;24.76;102986.13;10525229;28;20499;-77
2022/03/25 12:01:17;;;;;;;1.27;0.75;;;;;;;28.32;21.59;102975.34;10517743;27;20460;-76
2022/03/25 12:06:21;;;;;;;0.90;0.90;;;;;;;29.56;21.22;102970.41;10527629;28;20138;-77
2022/03/25 12:11:51;;;;;;;0.63;0.52;;;;;;;30.72;19.98;102973.00;10526751;28;20407;-78
2022/03/25 12:16:55;;;;;;;1.23;1.00;;;;;;;28.08;20.77;102981.88;10534461;28;20078;-78
2022/03/25 12:22:02;;;;;;;0.98;0.95;;;;;;;29.36;19.75;102977.03;10502407;28;20127;-76
2022/03/25 12:27:06;;;;;;;4.53;2.83;;;;;;;28.59;21.24;102968.69;10554275;27;20063;-77
2022/03/25 12:32:10;;;;;;;8.27;4.95;;;;;;;27.14;22.79;102968.94;10513906;28;20094;-77
2022/03/25 12:37:21;;;;;;;9.02;3.40;;;;;;;26.94;22.62;102961.22;10533677;28;20064;-77
2022/03/25 12:42:27;;;;;;;1.90;1.75;;;;;;;28.71;21.53;102956.13;10523976;28;20060;-77
2022/03/25 12:47:30;;;;;;;10.35;4.95;;;;;;;26.69;23.52;102953.47;10520725;28;20068;-77
2022/03/25 12:52:31;;;;;;;9.85;7.65;;;;;;;27.73;22.02;102955.00;10507825;28;20067;-78
2022/03/25 12:57:34;;;;;;;15.40;5.60;;;;;;;25.55;22.53;102962.16;10511923;28;20044;-76
2022/03/25 13:02:42;;;;;;;0.10;0.10;;;;;;;30.08;19.54;102941.81;10533563;28;20044;-77
2022/03/25 13:07:54;;;;;;;1.70;1.58;;;;;;;29.93;19.06;102928.88;10504494;28;20055;-77
2022/03/25 13:12:59;;;;;;;0.00;0.00;;;;;;;30.48;19.57;102923.97;10527644;28;20032;-77
2022/03/25 13:18:06;;;;;;;0.00;0.00;;;;;;;30.95;18.48;102919.13;10527481;28;20086;-77
2022/03/25 13:23:25;;;;;;;2.92;2.10;;;;;;;28.01;22.13;102917.50;10523311;28;20072;-77
2022/03/25 13:28:28;;;;;;;0.22;0.22;;;;;;;29.39;18.78;102915.03;10526599;28;20529;-76
2022/03/25 13:33:51;;;;;;;6.95;3.80;;;;;;;27.87;19.59;102925.66;10528504;28;20048;-78
2022/03/25 13:38:54;;;;;;;0.40;0.40;;;;;;;29.66;17.33;102909.97;10531277;28;20495;-77
2022/03/25 13:44:05;;;;;;;3.95;0.75;;;;;;;29.50;17.70;102914.78;10519172;28;20059;-78
2022/03/25 13:49:09;;;;;;;3.60;2.17;;;;;;;27.50;19.20;102919.13;10502423;28;20048;-79
2022/03/25 13:54:16;;;;;;;6.43;0.95;;;;;;;29.51;17.66;102903.25;10514148;28;20574;-76
2022/03/25 13:59:30;;;;;;;0.88;0.88;;;;;;;29.45;17.95;102906.91;10538960;28;20055;-77
2022/03/25 14:04:34;;;;;;;4.15;2.95;;;;;;;27.18;20.86;102904.50;10539357;28;20044;-76
2022/03/25 14:09:38;;;;;;;4.00;2.08;;;;;;;28.87;20.18;102898.34;10539638;28;20052;-76
2022/03/25 14:14:54;;;;;;;6.35;3.05;;;;;;;27.45;19.46;102905.06;10520198;28;20044;-77
2022/03/25 14:20:09;;;;;;;0.63;0.45;;;;;;;27.31;19.84;102899.03;10539199;28;20460;-76
2022/03/25 14:25:15;;;;;;;6.95;3.65;;;;;;;26.91;20.25;102885.44;10520520;28;20488;-76
2022/03/25 14:30:16;;;;;;;10.40;6.15;;;;;;;27.60;19.04;102884.56;10553405;28;21264;-76
2022/03/25 14:35:20;;;;;;;9.20;4.72;;;;;;;25.21;21.37;102881.34;10538069;28;20043;-75
2022/03/25 14:40:23;;;;;;;1.95;1.23;;;;;;;27.21;20.22;102887.69;10517462;28;20118;-76
2022/03/25 14:45:25;;;;;;;3.25;2.38;;;;;;;27.18;20.04;102878.03;10525586;28;20036;-75
2022/03/25 14:50:27;;;;;;;7.78;3.15;;;;;;;25.46;21.22;102876.00;10518592;28;20131;-76
2022/03/25 14:55:35;;;;;;;1.55;1.45;;;;;;;27.00;20.88;102868.56;10523956;28;20470;-75
2022/03/25 15:00:39;;;;;;;3.00;0.90;;;;;;;28.10;19.65;102853.81;10529651;28;20067;-76
2022/03/25 15:05:44;;;;;;;8.65;3.50;;;;;;;26.92;20.78;102860.72;10518104;28;20501;-75
2022/03/25 15:10:51;;;;;;;1.42;1.23;;;;;;;27.92;18.87;102854.06;10518754;28;20036;-75
2022/03/25 15:15:53;;;;;;;2.40;1.48;;;;;;;26.56;20.48;102857.56;10528907;28;20127;-76
2022/03/25 15:20:55;;;;;;;1.70;1.00;;;;;;;27.37;19.23;102853.97;10548877;28;20090;-76
2022/03/25 15:25:57;;;;;;;7.22;3.38;;;;;;;25.17;21.23;102862.03;10513469;28;20094;-77
2022/03/25 15:36:20;;;;;;;8.88;3.33;;;;;;;25.97;20.41;102857.19;10531471;28;20117;-78
2022/03/25 15:41:42;;;;;;;3.05;1.33;;;;;;;26.66;20.20;102847.75;10532758;28;20047;-76
2022/03/25 15:46:43;;;;;;;22.58;3.63;;;;;;;25.25;20.99;102854.09;10515104;28;20048;-77
2022/03/25 15:51:45;;;;;;;3.50;2.17;;;;;;;26.08;21.34;102851.88;10526943;28;20075;-76
2022/03/25 15:57:09;;;;;;;3.88;2.58;;;;;;;26.07;20.62;102847.44;10529423;28;20323;-76
2022/03/25 16:02:10;;;;;;;1.95;1.10;;;;;;;26.70;20.25;102841.56;10525675;28;20044;-75
2022/03/25 16:07:12;;;;;;;5.82;2.25;;;;;;;26.01;21.00;102840.44;10519956;28;20552;-75
2022/03/25 16:12:16;;;;;;;1.13;1.02;;;;;;;26.20;20.36;102835.91;10532824;28;20044;-75
2022/03/25 16:17:21;;;;;;;10.10;4.15;;;;;;;25.25;21.96;102835.63;10532435;28;20043;-75
2022/03/25 16:22:22;;;;;;;0.98;0.82;;;;;;;26.37;20.39;102841.00;10528154;28;20578;-75
2022/03/25 16:27:27;;;;;;;6.43;1.55;;;;;;;26.41;21.38;102836.56;10529536;28;20078;-75
2022/03/25 16:32:29;;;;;;;6.20;2.15;;;;;;;25.45;21.79;102840.84;10518615;28;20075;-76
2022/03/25 16:37:30;;;;;;;2.72;2.38;;;;;;;25.69;20.55;102835.41;10526147;28;20074;-75
2022/03/25 16:42:31;;;;;;;0.57;0.47;;;;;;;26.25;20.26;102834.06;10517979;28;20123;-75
2022/03/25 16:47:33;;;;;;;2.72;0.80;;;;;;;26.65;20.16;102834.56;10532303;28;20125;-75
2022/03/25 16:52:37;;;;;;;2.72;2.22;;;;;;;25.65;21.45;102838.03;10534887;28;20116;-76
2022/03/25 16:57:43;;;;;;;2.47;2.17;;;;;;;25.29;21.26;102847.03;10533472;28;20058;-75
2022/03/25 17:02:46;;;;;;;1.88;1.75;;;;;;;26.81;20.92;102846.75;10531052;28;20060;-75
2022/03/25 17:07:48;;;;;;;0.77;0.60;;;;;;;25.65;20.98;102843.31;10536808;28;20052;-75
2022/03/25 17:12:49;;;;;;;1.98;1.58;;;;;;;25.76;20.95;102842.38;10538409;28;20079;-74
2022/03/25 17:17:51;;;;;;;0.08;0.08;;;;;;;26.29;20.99;102840.19;10536055;28;20076;-75
2022/03/25 17:22:53;;;;;;;0.00;0.00;;;;;;;26.60;20.71;102848.72;10515916;28;20040;-76
2022/03/25 17:28:03;;;;;;;1.10;1.00;;;;;;;25.71;21.14;102844.19;10541734;28;20131;-75
2022/03/25 17:33:07;;;;;;;0.00;0.00;;;;;;;26.09;21.19;102850.97;10531921;28;20082;-75
2022/03/25 17:38:09;;;;;;;0.15;0.15;;;;;;;26.07;21.01;102847.44;10543177;28;20138;-76
2022/03/25 17:43:11;;;;;;;0.00;0.00;;;;;;;25.75;20.71;102845.91;10538784;28;20105;-76
2022/03/25 17:48:19;;;;;;;0.93;0.88;;;;;;;26.65;19.72;102847.78;10542766;28;20083;-76
2022/03/25 17:53:21;;;;;;;0.00;0.00;;;;;;;25.62;20.50;102851.28;10535200;28;20040;-77
2022/03/25 17:58:25;;;;;;;1.98;1.77;;;;;;;26.14;19.85;102854.44;10541215;28;20082;-76
2022/03/25 18:03:27;;;;;;;0.00;0.00;;;;;;;26.20;19.95;102858.81;10541949;28;20105;-75
2022/03/25 18:08:30;;;;;;;0.30;0.30;;;;;;;25.15;21.33;102873.47;10519580;28;20048;-75
2022/03/25 18:13:31;;;;;;;0.77;0.77;;;;;;;26.05;19.79;102865.03;10530237;28;20451;-75
2022/03/25 18:18:33;;;;;;;0.00;0.00;;;;;;;27.23;19.27;102862.97;10535283;28;20075;-76
2022/03/25 18:23:35;;;;;;;0.00;0.00;;;;;;;27.37;19.24;102872.50;10539927;28;20082;-75
2022/03/25 18:28:36;;;;;;;0.00;0.00;;;;;;;26.71;20.10;102872.41;10539113;28;20047;-75
2022/03/25 18:34:30;;;;;;;0.00;0.00;;;;;;;26.45;20.39;102880.59;10536431;28;20071;-75
2022/03/25 18:39:32;;;;;;;0.00;0.00;;;;;;;26.42;20.86;102880.59;10534442;28;20114;-75
2022/03/25 18:44:34;;;;;;;0.00;0.00;;;;;;;25.77;20.99;102891.66;10522911;28;20077;-75
2022/03/25 18:49:40;;;;;;;0.00;0.00;;;;;;;25.47;21.50;102891.81;10524445;28;20123;-75
2022/03/25 18:54:41;;;;;;;17.30;16.17;;;;;;;25.63;21.72;102895.28;10538779;28;20040;-74
2022/03/25 18:59:43;;;;;;;0.00;0.00;;;;;;;24.75;22.78;102902.63;10523644;28;20123;-76
2022/03/25 19:04:45;;;;;;;0.00;0.00;;;;;;;24.51;23.30;102904.38;10531256;28;20443;-75
2022/03/25 19:09:46;;;;;;;0.00;0.00;;;;;;;23.79;24.30;102913.06;10568455;28;20124;-75
2022/03/25 19:14:49;;;;;;;0.00;0.00;;;;;;;23.39;24.86;102913.78;10536576;28;20439;-75
2022/03/25 19:19:51;;;;;;;0.00;0.00;;;;;;;23.03;25.47;102925.84;10520465;28;20044;-75
2022/03/25 19:24:52;;;;;;;0.00;0.00;;;;;;;22.82;25.43;102922.22;10523860;28;20450;-75
2022/03/25 19:29:54;;;;;;;0.00;0.00;;;;;;;22.67;25.32;102925.63;10553010;28;20067;-74
2022/03/25 19:34:57;;;;;;;0.35;0.35;;;;;;;21.66;26.71;102931.63;10542063;28;20044;-75
2022/03/25 19:40:00;;;;;;;0.13;0.13;;;;;;;22.22;25.57;102935.72;10521117;28;20051;-76
2022/03/25 19:45:08;;;;;;;0.90;0.73;;;;;;;22.76;24.85;102928.31;10501973;28;20040;-76
2022/03/25 19:50:11;;;;;;;0.00;0.00;;;;;;;21.95;25.81;102947.72;10515455;28;20497;-76
2022/03/25 19:55:12;;;;;;;0.10;0.10;;;;;;;22.80;24.15;102948.50;10523847;28;20500;-77
2022/03/25 20:00:15;;;;;;;1.42;0.63;;;;;;;21.81;26.07;102950.16;10539091;28;20498;-77
2022/03/25 20:05:16;;;;;;;2.47;1.60;;;;;;;21.69;25.99;102960.53;10530972;28;20040;-75
2022/03/25 20:10:18;;;;;;;1.10;0.32;;;;;;;21.37;26.25;102966.19;10539441;28;20169;-76
2022/03/25 20:15:19;;;;;;;4.72;3.03;;;;;;;21.19;26.44;102967.69;10539038;28;20443;-77
2022/03/25 20:20:21;;;;;;;2.85;2.65;;;;;;;21.71;25.89;102974.53;10530146;28;20536;-75
2022/03/25 20:25:22;;;;;;;2.78;2.55;;;;;;;21.87;25.78;102975.59;10528795;28;20044;-76
2022/03/25 20:30:26;;;;;;;0.03;0.03;;;;;;;21.94;25.87;102984.41;10530157;28;20495;-76
2022/03/25 20:35:29;;;;;;;1.10;1.02;;;;;;;22.02;25.72;102980.13;10512246;28;20044;-76
2022/03/25 20:40:31;;;;;;;0.00;0.00;;;;;;;21.42;26.62;102993.34;10532750;28;20044;-75
2022/03/25 20:45:33;;;;;;;0.77;0.70;;;;;;;21.12;27.23;102989.44;10540052;28;20126;-76
2022/03/25 20:50:35;;;;;;;0.00;0.00;;;;;;;21.30;26.92;102993.19;10552164;28;20479;-75
2022/03/25 20:55:37;;;;;;;14.73;1.45;;;;;;;20.40;28.17;103007.41;10534675;28;20067;-76
2022/03/25 21:00:38;;;;;;;1.08;0.55;;;;;;;20.67;27.82;103011.38;10517954;28;20134;-76
2022/03/25 21:05:40;;;;;;;0.10;0.10;;;;;;;20.82;28.09;103016.91;10552406;28;20040;-75
2022/03/25 21:10:42;;;;;;;0.43;0.43;;;;;;;20.47;27.87;103017.13;10552285;28;20074;-76
2022/03/25 21:15:44;;;;;;;0.63;0.63;;;;;;;20.93;27.55;103009.22;10517664;28;20059;-76
2022/03/25 21:20:45;;;;;;;24.60;1.08;;;;;;;20.29;28.53;103015.94;10552102;28;20036;-76
2022/03/25 21:25:47;;;;;;;0.00;0.00;;;;;;;21.30;26.88;103011.53;10548000;28;20037;-76
2022/03/25 21:30:49;;;;;;;0.10;0.10;;;;;;;20.58;28.07;103018.22;10543615;28;20071;-76
2022/03/25 21:35:50;;;;;;;0.73;0.68;;;;;;;20.25;28.73;103028.97;10530269;28;20514;-76
2022/03/25 21:40:53;;;;;;;0.75;0.75;;;;;;;20.57;28.61;103032.19;10531697;28;20074;-76
2022/03/25 21:45:55;;;;;;;6.93;1.77;;;;;;;20.21;28.90;103035.88;10551188;28;20052;-76
2022/03/25 21:50:57;;;;;;;1.85;1.75;;;;;;;21.47;26.97;103030.13;10516843;28;20084;-76
2022/03/25 21:55:59;;;;;;;0.00;0.00;;;;;;;19.84;29.26;103037.72;10542607;28;20044;-76
2022/03/25 22:01:00;;;;;;;0.80;0.80;;;;;;;20.18;29.00;103041.03;10540582;28;20071;-76
2022/03/25 22:06:02;;;;;;;0.47;0.47;;;;;;;20.41;28.58;103036.22;10552651;28;20044;-76
2022/03/25 22:11:04;;;;;;;2.20;1.27;;;;;;;19.94;29.31;103039.66;10539676;28;20506;-76
2022/03/25 22:16:08;;;;;;;0.00;0.00;;;;;;;19.80;29.70;103043.69;10524025;28;20044;-74
2022/03/25 22:21:10;;;;;;;1.35;0.90;;;;;;;19.41;30.21;103031.50;10532870;28;20036;-75
2022/03/25 22:26:11;;;;;;;16.05;1.08;;;;;;;19.47;30.08;103037.75;10540505;28;20380;-75
2022/03/25 22:31:13;;;;;;;5.68;5.20;;;;;;;19.09;30.86;103039.47;10526477;28;20521;-75
2022/03/25 22:36:17;;;;;;;0.20;0.20;;;;;;;20.24;29.06;103038.53;10534771;28;20407;-75
2022/03/25 22:41:19;;;;;;;0.10;0.10;;;;;;;19.14;30.63;103046.56;10539181;28;20044;-75
2022/03/25 22:46:20;;;;;;;0.52;0.52;;;;;;;19.60;29.88;103040.63;10537762;28;20098;-75
2022/03/25 22:51:22;;;;;;;0.00;0.00;;;;;;;19.49;30.06;103045.63;10540524;28;20093;-76
2022/03/25 22:56:26;;;;;;;0.77;0.60;;;;;;;19.17;30.55;103045.78;10541541;28;20067;-75
2022/03/25 23:01:36;;;;;;;0.75;0.70;;;;;;;19.10;30.75;103051.69;10539658;28;20071;-75
2022/03/25 23:06:39;;;;;;;0.15;0.15;;;;;;;19.05;30.48;103050.69;10537365;28;20501;-76
2022/03/25 23:11:40;;;;;;;0.20;0.20;;;;;;;18.63;31.53;103055.69;10514054;28;20447;-77
2022/03/25 23:16:42;;;;;;;0.00;0.00;;;;;;;19.03;30.76;103054.13;10531429;28;20097;-76
2022/03/25 23:21:44;;;;;;;2.33;1.95;;;;;;;19.54;29.71;103049.25;10516170;28;20036;-75